Time;durP1;ratioP1;P1;durP2;ratioP2;P2;SDS_P1;SDS_P2;PMS_P1;PMS_P2;Temp;Humidity;BMP_temperature;BMP_pressure;BME280_temperature;BME280_humidity;BME280_pressure;Samples;Min_cycle;Max_cycle;Signal;HPM_P1;HPM_P2
2022/08/15 00:01:10;;;;;;;;;;;22.90;99.90;;;;;;5076658;28;19908;-63
2022/08/15 00:03:37;;;;;;;;;;;22.90;99.90;;;;;;5076815;28;19908;-64
2022/08/15 00:06:05;;;;;;;;;;;22.90;99.90;;;;;;5076380;28;19920;-63
2022/08/15 00:08:31;;;;;;;;;;;22.90;99.90;;;;;;5076529;28;19916;-63
2022/08/15 00:11:00;;;;;;;;;;;22.90;99.90;;;;;;5076524;28;19908;-63
2022/08/15 00:13:28;;;;;;;;;;;23.00;99.90;;;;;;5076479;28;19908;-63
2022/08/15 00:15:55;;;;;;;;;;;23.00;99.90;;;;;;5076398;28;19919;-63
2022/08/15 00:18:23;;;;;;;;;;;23.00;99.90;;;;;;5076619;28;19909;-64
2022/08/15 00:20:48;;;;;;;;;;;23.00;99.90;;;;;;5076537;28;19958;-64
2022/08/15 00:23:15;;;;;;;;;;;23.10;99.90;;;;;;5076257;28;20374;-63
2022/08/15 00:25:44;;;;;;;;;;;23.10;99.90;;;;;;5076234;28;19912;-64
2022/08/15 00:28:09;;;;;;;;;;;23.20;99.90;;;;;;5076247;28;19913;-64
2022/08/15 00:30:36;;;;;;;;;;;23.20;99.90;;;;;;5076428;28;19962;-64
2022/08/15 00:33:02;;;;;;;;;;;23.30;99.90;;;;;;5076386;28;20263;-64
2022/08/15 00:35:43;;;;;;;;;;;23.30;99.90;;;;;;5076321;28;20347;-65
2022/08/15 00:38:11;;;;;;;;;;;23.40;99.90;;;;;;5076019;28;19999;-64
2022/08/15 00:43:25;;;;;;;;;;;23.60;99.90;;;;;;5075791;28;19919;-65
2022/08/15 00:45:51;;;;;;;;;;;23.60;99.90;;;;;;5075888;28;19912;-65
2022/08/15 00:48:50;;;;;;;;;;;23.60;99.90;;;;;;5058348;28;19908;-64
2022/08/15 00:51:03;;;;;;;;;;;23.70;99.90;;;;;;5075671;28;19950;-64
2022/08/15 00:53:29;;;;;;;;;;;23.80;99.90;;;;;;5076037;28;19936;-64
2022/08/15 00:55:56;;;;;;;;;;;23.80;99.90;;;;;;5076059;28;20333;-64
2022/08/15 00:58:22;;;;;;;;;;;23.80;99.90;;;;;;5075989;28;19945;-63
2022/08/15 01:00:47;;;;;;;;;;;23.80;99.90;;;;;;5075604;28;20384;-63
2022/08/15 01:03:15;;;;;;;;;;;23.80;99.90;;;;;;5075420;28;19916;-64
2022/08/15 01:05:42;;;;;;;;;;;23.80;99.90;;;;;;5075367;28;19970;-63
2022/08/15 01:08:08;;;;;;;;;;;23.80;99.90;;;;;;5075476;28;20271;-64
2022/08/15 01:10:34;;;;;;;;;;;23.80;99.90;;;;;;5075408;28;19962;-64
2022/08/15 01:12:59;;;;;;;;;;;23.80;99.90;;;;;;5075630;28;20389;-63
2022/08/15 01:15:25;;;;;;;;;;;23.70;99.90;;;;;;5057477;28;20007;-64
2022/08/15 01:17:51;;;;;;;;;;;23.70;99.90;;;;;;5075539;28;19912;-63
2022/08/15 01:20:20;;;;;;;;;;;23.70;99.90;;;;;;5075188;28;20371;-63
2022/08/15 01:22:52;;;;;;;;;;;23.70;99.90;;;;;;5075427;28;19995;-64
2022/08/15 01:25:20;;;;;;;;;;;23.60;99.90;;;;;;5075288;28;19919;-64
2022/08/15 01:27:50;;;;;;;;;;;23.60;99.90;;;;;;5075002;28;19909;-64
2022/08/15 01:30:17;;;;;;;;;;;23.60;99.90;;;;;;5075310;28;19956;-64
2022/08/15 01:32:43;;;;;;;;;;;23.60;99.90;;;;;;5074996;28;19915;-64
2022/08/15 01:35:09;;;;;;;;;;;23.60;99.90;;;;;;5074853;28;19909;-63
2022/08/15 01:37:36;;;;;;;;;;;23.60;99.90;;;;;;5075100;28;20290;-64
2022/08/15 01:40:08;;;;;;;;;;;23.50;99.90;;;;;;5075021;28;19909;-64
2022/08/15 01:42:41;;;;;;;;;;;23.50;99.90;;;;;;5075005;28;20001;-64
2022/08/15 01:45:10;;;;;;;;;;;23.40;99.90;;;;;;5074852;28;19913;-64
2022/08/15 01:47:37;;;;;;;;;;;23.40;99.90;;;;;;5074925;28;19935;-63
2022/08/15 01:50:08;;;;;;;;;;;23.40;99.90;;;;;;5074607;28;20317;-64
2022/08/15 01:52:36;;;;;;;;;;;23.40;99.90;;;;;;5074810;28;19908;-63
2022/08/15 01:55:03;;;;;;;;;;;23.30;99.90;;;;;;5074769;28;20370;-64
2022/08/15 01:57:29;;;;;;;;;;;23.30;99.90;;;;;;5074706;28;19935;-63
2022/08/15 01:59:56;;;;;;;;;;;23.20;99.90;;;;;;5074399;28;20298;-64
2022/08/15 02:02:22;;;;;;;;;;;23.20;99.90;;;;;;5074654;28;20379;-64
2022/08/15 02:04:47;;;;;;;;;;;23.10;99.90;;;;;;5074180;28;19955;-64
2022/08/15 02:07:17;;;;;;;;;;;23.10;99.90;;;;;;5074534;28;20358;-64
2022/08/15 02:09:43;;;;;;;;;;;23.00;99.90;;;;;;5074493;28;19908;-64
2022/08/15 02:12:10;;;;;;;;;;;23.00;99.90;;;;;;5074156;28;19931;-63
2022/08/15 02:14:38;;;;;;;;;;;22.90;99.90;;;;;;5073890;28;20370;-64
2022/08/15 02:17:03;;;;;;;;;;;22.80;99.90;;;;;;5074346;28;19954;-64
2022/08/15 02:19:29;;;;;;;;;;;22.80;99.90;;;;;;5074369;28;19908;-64
2022/08/15 02:21:55;;;;;;;;;;;22.70;99.90;;;;;;5056470;28;19913;-64
2022/08/15 02:24:24;;;;;;;;;;;22.70;99.90;;;;;;5074188;28;19912;-64
2022/08/15 02:26:50;;;;;;;;;;;22.60;99.90;;;;;;5056112;28;19952;-64
2022/08/15 02:29:16;;;;;;;;;;;22.60;99.90;;;;;;5073926;28;19930;-64
2022/08/15 02:31:42;;;;;;;;;;;22.60;99.90;;;;;;5074126;28;19983;-64
2022/08/15 02:34:08;;;;;;;;;;;22.60;99.90;;;;;;5055942;28;19908;-63
2022/08/15 02:36:34;;;;;;;;;;;22.60;99.90;;;;;;5073880;28;19908;-63
2022/08/15 02:39:01;;;;;;;;;;;22.60;99.90;;;;;;5074083;28;20286;-63
2022/08/15 02:41:30;;;;;;;;;;;22.70;99.90;;;;;;5073997;28;19908;-64
2022/08/15 02:43:56;;;;;;;;;;;22.70;99.90;;;;;;5073720;28;19908;-64
2022/08/15 02:46:23;;;;;;;;;;;22.70;99.90;;;;;;5073955;28;19919;-64
2022/08/15 02:48:48;;;;;;;;;;;22.70;99.90;;;;;;5074043;28;20370;-64
2022/08/15 02:51:16;;;;;;;;;;;22.60;99.90;;;;;;5073930;28;19919;-64
2022/08/15 02:53:43;;;;;;;;;;;22.60;99.90;;;;;;5073902;28;19909;-63
2022/08/15 02:56:09;;;;;;;;;;;22.60;99.90;;;;;;5073909;28;19926;-63
2022/08/15 02:58:35;;;;;;;;;;;22.60;99.90;;;;;;5073552;28;19920;-63
2022/08/15 03:01:03;;;;;;;;;;;22.60;99.90;;;;;;5055587;28;20378;-63
2022/08/15 03:03:29;;;;;;;;;;;22.50;99.90;;;;;;5073448;28;19917;-64
2022/08/15 03:05:54;;;;;;;;;;;22.50;99.90;;;;;;5073183;28;19924;-63
2022/08/15 03:08:21;;;;;;;;;;;22.40;99.90;;;;;;5073446;28;19908;-63
2022/08/15 03:10:46;;;;;;;;;;;22.40;99.90;;;;;;5073497;28;20321;-64
2022/08/15 03:13:13;;;;;;;;;;;22.40;99.90;;;;;;5073717;28;19917;-64
2022/08/15 03:15:42;;;;;;;;;;;22.40;99.90;;;;;;5073693;28;19908;-63
2022/08/15 03:18:08;;;;;;;;;;;22.40;99.90;;;;;;5073621;28;19908;-63
2022/08/15 03:20:35;;;;;;;;;;;22.40;99.90;;;;;;5038746;28;19909;-64
2022/08/15 03:23:03;;;;;;;;;;;22.30;99.90;;;;;;5073295;28;19915;-64
2022/08/15 03:25:28;;;;;;;;;;;22.30;99.90;;;;;;5073500;28;19912;-63
2022/08/15 03:27:54;;;;;;;;;;;22.20;99.90;;;;;;5077237;28;19920;-64
2022/08/15 03:30:19;;;;;;;;;;;22.20;99.90;;;;;;5077536;28;19956;-64
2022/08/15 03:32:46;;;;;;;;;;;22.10;99.90;;;;;;5077489;28;19908;-64
2022/08/15 03:35:12;;;;;;;;;;;22.10;99.90;;;;;;5077393;28;19912;-64
2022/08/15 03:37:38;;;;;;;;;;;22.00;99.90;;;;;;5077406;28;20325;-63
2022/08/15 03:40:05;;;;;;;;;;;22.00;99.90;;;;;;5077127;28;20315;-64
2022/08/15 03:42:30;;;;;;;;;;;22.00;99.90;;;;;;5059190;28;20378;-63
2022/08/15 03:44:56;;;;;;;;;;;21.90;99.90;;;;;;5077214;28;20004;-64
2022/08/15 03:47:21;;;;;;;;;;;21.80;99.90;;;;;;5076981;28;20349;-64
2022/08/15 03:49:47;;;;;;;;;;;21.80;99.90;;;;;;5077191;28;19923;-64
2022/08/15 03:52:13;;;;;;;;;;;21.70;99.90;;;;;;5076927;28;20449;-63
2022/08/15 03:54:39;;;;;;;;;;;21.60;99.90;;;;;;5076846;28;20290;-63
2022/08/15 03:57:05;;;;;;;;;;;21.60;99.90;;;;;;5076758;28;19912;-63
2022/08/15 03:59:31;;;;;;;;;;;21.50;99.90;;;;;;5077006;28;19908;-63
2022/08/15 04:01:56;;;;;;;;;;;21.50;99.90;;;;;;5076925;28;19953;-64
2022/08/15 04:04:22;;;;;;;;;;;21.50;99.90;;;;;;5076368;28;20003;-64
2022/08/15 04:06:47;;;;;;;;;;;21.50;99.90;;;;;;5076596;28;19908;-64
2022/08/15 04:09:13;;;;;;;;;;;21.50;99.90;;;;;;5076571;28;19974;-64
2022/08/15 04:11:38;;;;;;;;;;;21.40;99.90;;;;;;5076519;28;19908;-64
2022/08/15 04:14:06;;;;;;;;;;;21.40;99.90;;;;;;5076721;28;19920;-64
2022/08/15 04:16:32;;;;;;;;;;;21.40;99.90;;;;;;5076686;28;20307;-64
2022/08/15 04:18:58;;;;;;;;;;;21.40;99.90;;;;;;5058530;28;19917;-64
2022/08/15 04:21:23;;;;;;;;;;;21.30;99.90;;;;;;5076511;28;20011;-64
2022/08/15 04:23:49;;;;;;;;;;;21.30;99.90;;;;;;5041807;28;19914;-64
2022/08/15 04:26:15;;;;;;;;;;;21.30;99.90;;;;;;5076459;28;19923;-64
2022/08/15 04:28:43;;;;;;;;;;;21.30;99.90;;;;;;5076466;28;19908;-64
2022/08/15 04:31:11;;;;;;;;;;;21.30;99.90;;;;;;5076424;28;20385;-64
2022/08/15 04:33:37;;;;;;;;;;;21.30;99.90;;;;;;5076390;28;19909;-64
2022/08/15 04:36:04;;;;;;;;;;;21.30;99.90;;;;;;5076307;28;20375;-64
2022/08/15 04:38:32;;;;;;;;;;;21.40;99.90;;;;;;5075816;28;20418;-63
2022/08/15 04:40:57;;;;;;;;;;;21.40;99.90;;;;;;5058063;28;20003;-64
2022/08/15 04:43:23;;;;;;;;;;;21.50;99.90;;;;;;5076227;28;20385;-64
2022/08/15 04:45:49;;;;;;;;;;;21.50;99.90;;;;;;5057910;28;19912;-64
2022/08/15 04:48:16;;;;;;;;;;;21.60;99.90;;;;;;5076125;28;19938;-64
2022/08/15 04:50:43;;;;;;;;;;;21.60;99.90;;;;;;5076062;28;19908;-64
2022/08/15 04:53:09;;;;;;;;;;;21.70;99.90;;;;;;5075915;28;20379;-64
2022/08/15 04:55:35;;;;;;;;;;;21.70;99.90;;;;;;5075986;28;19975;-64
2022/08/15 04:58:01;;;;;;;;;;;21.80;99.90;;;;;;5075933;28;19918;-64
2022/08/15 05:00:29;;;;;;;;;;;21.80;99.90;;;;;;5075947;28;20010;-64
2022/08/15 05:02:56;;;;;;;;;;;21.90;99.90;;;;;;5075767;28;20015;-64
2022/08/15 05:05:22;;;;;;;;;;;22.00;99.90;;;;;;5075282;28;20470;-64
2022/08/15 05:07:47;;;;;;;;;;;22.10;99.90;;;;;;5075661;28;19952;-64
2022/08/15 05:10:14;;;;;;;;;;;22.20;99.90;;;;;;5075509;28;19913;-64
2022/08/15 05:12:40;;;;;;;;;;;22.30;99.90;;;;;;5075604;28;19912;-64
2022/08/15 05:15:07;;;;;;;;;;;22.40;99.90;;;;;;5057438;28;19953;-64
2022/08/15 05:17:32;;;;;;;;;;;22.50;99.90;;;;;;5075531;28;19909;-64
2022/08/15 05:19:58;;;;;;;;;;;22.60;99.90;;;;;;5075192;28;19931;-64
2022/08/15 05:22:23;;;;;;;;;;;22.70;99.90;;;;;;5075186;28;19931;-64
2022/08/15 05:24:49;;;;;;;;;;;22.80;99.90;;;;;;5074975;28;20014;-64
2022/08/15 05:27:14;;;;;;;;;;;22.90;99.90;;;;;;5075085;28;19916;-64
2022/08/15 05:29:42;;;;;;;;;;;23.10;99.90;;;;;;5075012;28;19912;-64
2022/08/15 05:32:08;;;;;;;;;;;23.20;99.90;;;;;;5075245;28;19934;-64
2022/08/15 05:34:34;;;;;;;;;;;23.30;99.90;;;;;;5074943;28;20335;-64
2022/08/15 05:37:01;;;;;;;;;;;23.40;99.90;;;;;;5057279;28;19915;-64
2022/08/15 05:39:28;;;;;;;;;;;23.70;99.90;;;;;;5075056;28;19958;-64
2022/08/15 05:41:59;;;;;;;;;;;24.00;99.90;;;;;;5074788;28;20355;-64
2022/08/15 05:44:28;;;;;;;;;;;24.20;99.90;;;;;;5056850;28;19916;-64
2022/08/15 05:47:06;;;;;;;;;;;24.30;99.90;;;;;;5074666;28;19951;-64
2022/08/15 05:49:52;;;;;;;;;;;24.50;99.90;;;;;;5073762;28;19954;-64
2022/08/15 05:52:28;;;;;;;;;;;24.90;99.90;;;;;;5074482;28;19909;-64
2022/08/15 05:57:56;;;;;;;;;;;26.10;99.00;;;;;;5070972;28;19912;-64
2022/08/15 06:00:24;;;;;;;;;;;26.40;97.10;;;;;;5070875;28;19916;-64
2022/08/15 06:02:53;;;;;;;;;;;26.80;96.30;;;;;;5070700;28;19931;-65
2022/08/15 06:05:25;;;;;;;;;;;27.00;95.10;;;;;;5071017;28;19951;-64
2022/08/15 06:07:52;;;;;;;;;;;27.20;94.20;;;;;;5070967;28;20330;-64
2022/08/15 06:10:37;;;;;;;;;;;26.60;94.40;;;;;;5070936;28;19913;-64
2022/08/15 06:13:08;;;;;;;;;;;25.70;95.90;;;;;;5070648;28;19932;-64
2022/08/15 06:15:46;;;;;;;;;;;25.20;97.00;;;;;;5070561;28;20290;-65
2022/08/15 06:18:13;;;;;;;;;;;25.00;98.00;;;;;;5085682;28;19909;-64
2022/08/15 06:20:50;;;;;;;;;;;24.90;98.50;;;;;;5070802;28;19919;-63
2022/08/15 06:23:21;;;;;;;;;;;24.90;98.30;;;;;;5070440;28;19908;-64
2022/08/15 06:26:04;;;;;;;;;;;24.90;98.30;;;;;;5070605;28;19999;-64
2022/08/15 06:28:42;;;;;;;;;;;24.90;98.50;;;;;;5070332;28;19955;-64
2022/08/15 06:34:16;;;;;;;;;;;25.20;98.10;;;;;;5070890;28;19919;-63
2022/08/15 06:36:46;;;;;;;;;;;26.10;96.20;;;;;;5070900;28;20389;-64
2022/08/15 06:39:21;;;;;;;;;;;26.90;94.30;;;;;;5070882;28;19909;-64
2022/08/15 06:41:55;;;;;;;;;;;28.10;93.20;;;;;;5070693;28;19912;-64
2022/08/15 06:44:22;;;;;;;;;;;29.50;91.10;;;;;;5070892;28;19916;-64
2022/08/15 06:46:49;;;;;;;;;;;29.10;89.40;;;;;;5069430;28;19912;-64
2022/08/15 06:49:19;;;;;;;;;;;27.30;92.00;;;;;;5070821;28;20426;-64
2022/08/15 06:51:45;;;;;;;;;;;26.00;94.30;;;;;;5070770;28;19913;-63
2022/08/15 06:54:14;;;;;;;;;;;24.80;97.00;;;;;;5086379;28;19916;-64
2022/08/15 06:56:45;;;;;;;;;;;24.70;98.00;;;;;;5070311;28;20403;-64
2022/08/15 06:59:31;;;;;;;;;;;24.80;98.70;;;;;;5070667;28;20009;-63
2022/08/15 07:02:16;;;;;;;;;;;25.20;98.30;;;;;;5070351;28;20111;-63
2022/08/15 07:05:05;;;;;;;;;;;25.20;98.30;;;;;;5070221;28;19908;-63
2022/08/15 07:07:51;;;;;;;;;;;25.50;98.20;;;;;;5070072;28;19916;-63
2022/08/15 07:10:23;;;;;;;;;;;25.40;98.00;;;;;;5068832;28;19909;-65
2022/08/15 07:13:13;;;;;;;;;;;25.20;98.30;;;;;;5069820;28;19958;-65
2022/08/15 07:15:46;;;;;;;;;;;25.50;98.60;;;;;;5068053;28;19920;-64
2022/08/15 07:18:17;;;;;;;;;;;25.10;98.20;;;;;;5070287;28;19916;-64
2022/08/15 07:20:43;;;;;;;;;;;25.00;98.80;;;;;;5070166;28;19916;-63
2022/08/15 07:23:17;;;;;;;;;;;24.90;99.00;;;;;;5070071;28;19913;-64
2022/08/15 07:25:45;;;;;;;;;;;25.00;99.20;;;;;;5069785;28;20315;-64
2022/08/15 07:28:10;;;;;;;;;;;24.80;99.60;;;;;;5069530;28;19908;-64
2022/08/15 07:30:49;;;;;;;;;;;24.40;99.90;;;;;;5068282;28;19913;-65
2022/08/15 07:33:32;;;;;;;;;;;24.30;99.90;;;;;;5091980;28;19920;-66
2022/08/15 07:36:01;;;;;;;;;;;24.10;99.90;;;;;;5075754;28;19913;-65
2022/08/15 07:38:28;;;;;;;;;;;23.60;99.90;;;;;;5089447;28;19917;-68
2022/08/15 07:41:10;;;;;;;;;;;23.40;99.90;;;;;;5075673;28;20394;-67
2022/08/15 07:43:36;;;;;;;;;;;23.30;99.90;;;;;;5102356;28;19958;-67
2022/08/15 07:46:07;;;;;;;;;;;23.40;99.90;;;;;;5076138;28;19908;-68
2022/08/15 07:48:33;;;;;;;;;;;23.30;99.90;;;;;;5075884;28;20379;-67
2022/08/15 07:51:15;;;;;;;;;;;23.20;99.90;;;;;;5057614;28;19955;-68
2022/08/15 07:53:49;;;;;;;;;;;23.10;99.90;;;;;;5074911;28;20333;-68
2022/08/15 07:56:15;;;;;;;;;;;22.80;99.90;;;;;;5075078;28;19909;-67
2022/08/15 07:58:42;;;;;;;;;;;22.60;99.90;;;;;;5075100;28;20003;-68
2022/08/15 08:01:10;;;;;;;;;;;22.60;99.90;;;;;;5075042;28;19927;-69
2022/08/15 08:03:37;;;;;;;;;;;22.40;99.90;;;;;;5040543;28;19952;-67
2022/08/15 08:06:23;;;;;;;;;;;22.40;99.90;;;;;;5075886;28;19915;-68
2022/08/15 08:08:54;;;;;;;;;;;22.50;99.90;;;;;;5074795;28;20063;-67
2022/08/15 08:11:29;;;;;;;;;;;22.50;99.90;;;;;;5075468;28;19909;-67
2022/08/15 08:14:00;;;;;;;;;;;22.60;99.90;;;;;;5075808;28;19913;-68
2022/08/15 08:16:28;;;;;;;;;;;22.90;99.90;;;;;;5074940;28;19961;-67
2022/08/15 08:22:03;;;;;;;;;;;23.20;99.90;;;;;;5090322;27;19916;-65
2022/08/15 08:24:48;;;;;;;;;;;23.40;99.90;;;;;;5091224;28;19912;-66
2022/08/15 08:27:20;;;;;;;;;;;23.40;99.90;;;;;;5090887;28;19909;-64
2022/08/15 08:29:49;;;;;;;;;;;23.30;99.90;;;;;;5072713;28;19955;-66
2022/08/15 08:32:35;;;;;;;;;;;23.20;99.90;;;;;;5070476;28;20371;-66
2022/08/15 08:35:21;;;;;;;;;;;23.10;99.90;;;;;;5069191;28;20406;-64
2022/08/15 08:37:53;;;;;;;;;;;22.90;99.90;;;;;;5070286;28;20349;-65
2022/08/15 08:43:44;;;;;;;;;;;22.90;99.90;;;;;;5069718;28;19955;-64
2022/08/15 08:46:15;;;;;;;;;;;22.80;99.90;;;;;;5068222;28;20375;-66
2022/08/15 08:49:00;;;;;;;;;;;22.60;99.90;;;;;;5070466;28;19925;-65
2022/08/15 08:51:38;;;;;;;;;;;22.60;99.90;;;;;;5069980;28;19909;-66
2022/08/15 08:54:10;;;;;;;;;;;22.60;99.90;;;;;;5070407;28;19912;-66
2022/08/15 08:56:38;;;;;;;;;;;22.60;99.90;;;;;;5069629;28;19909;-65
2022/08/15 08:59:08;;;;;;;;;;;22.80;99.90;;;;;;5069981;28;19913;-64
2022/08/15 09:01:35;;;;;;;;;;;23.00;99.90;;;;;;5069393;28;19920;-65
2022/08/15 09:04:03;;;;;;;;;;;23.20;99.90;;;;;;5070101;28;19967;-65
2022/08/15 09:06:31;;;;;;;;;;;23.50;99.90;;;;;;5069508;28;19908;-65
2022/08/15 09:09:03;;;;;;;;;;;23.80;99.90;;;;;;5070016;28;20386;-65
2022/08/15 09:11:49;;;;;;;;;;;24.20;99.90;;;;;;5068027;28;19909;-65
2022/08/15 09:14:34;;;;;;;;;;;24.50;99.90;;;;;;5068782;28;19932;-65
2022/08/15 09:17:04;;;;;;;;;;;24.60;99.90;;;;;;5069119;28;21160;-64
2022/08/15 09:19:35;;;;;;;;;;;24.50;99.90;;;;;;5070423;28;19948;-65
2022/08/15 09:22:01;;;;;;;;;;;24.30;99.90;;;;;;5089697;28;19912;-63
2022/08/15 09:24:27;;;;;;;;;;;24.20;99.90;;;;;;5089673;28;19908;-64
2022/08/15 09:27:04;;;;;;;;;;;24.20;99.90;;;;;;5089500;28;19967;-64
2022/08/15 09:29:32;;;;;;;;;;;24.00;99.90;;;;;;5089502;28;20390;-65
2022/08/15 09:32:09;;;;;;;;;;;24.10;99.90;;;;;;5082661;28;19916;-65
2022/08/15 09:34:55;;;;;;;;;;;23.90;99.90;;;;;;5075747;28;19909;-65
2022/08/15 09:37:40;;;;;;;;;;;23.90;99.90;;;;;;5075310;28;20424;-65
2022/08/15 09:40:25;;;;;;;;;;;23.90;99.90;;;;;;5075831;28;19920;-65
2022/08/15 09:42:59;;;;;;;;;;;23.90;99.90;;;;;;5075688;28;19917;-62
2022/08/15 09:45:32;;;;;;;;;;;23.90;99.90;;;;;;5076146;28;20371;-63
2022/08/15 09:48:17;;;;;;;;;;;24.10;99.90;;;;;;5075454;28;19913;-65
2022/08/15 09:51:04;;;;;;;;;;;24.20;99.90;;;;;;5075203;28;20290;-64
2022/08/15 09:53:51;;;;;;;;;;;24.20;99.90;;;;;;5075236;28;19908;-63
2022/08/15 09:56:18;;;;;;;;;;;24.20;99.90;;;;;;5075430;28;20336;-63
2022/08/15 09:59:04;;;;;;;;;;;24.10;99.90;;;;;;5074952;28;19966;-63
2022/08/15 10:01:30;;;;;;;;;;;24.20;99.90;;;;;;5074940;28;19913;-63
2022/08/15 10:03:58;;;;;;;;;;;24.10;99.90;;;;;;5075566;28;19908;-63
2022/08/15 10:06:26;;;;;;;;;;;24.10;99.90;;;;;;5075666;28;20020;-64
2022/08/15 10:11:32;;;;;;;;;;;24.20;99.90;;;;;;5091017;27;19912;-65
2022/08/15 10:14:06;;;;;;;;;;;24.30;99.90;;;;;;5090982;28;20370;-64
2022/08/15 10:16:42;;;;;;;;;;;24.30;99.90;;;;;;5090803;28;20397;-65
2022/08/15 10:19:27;;;;;;;;;;;24.40;99.90;;;;;;5090957;28;19912;-64
2022/08/15 10:21:55;;;;;;;;;;;24.60;99.90;;;;;;5090701;28;19934;-65
2022/08/15 10:24:30;;;;;;;;;;;24.70;99.90;;;;;;5090782;28;19916;-65
2022/08/15 10:27:12;;;;;;;;;;;25.00;99.90;;;;;;5090171;28;19913;-64
2022/08/15 10:29:39;;;;;;;;;;;25.10;99.90;;;;;;5090068;28;20485;-64
2022/08/15 10:32:05;;;;;;;;;;;25.20;99.90;;;;;;5090668;28;19908;-64
2022/08/15 10:34:50;;;;;;;;;;;25.10;99.90;;;;;;5090748;28;19913;-65
2022/08/15 10:37:21;;;;;;;;;;;25.30;99.90;;;;;;5089662;28;19927;-64
2022/08/15 10:39:55;;;;;;;;;;;25.40;99.90;;;;;;5090247;28;19908;-65
2022/08/15 10:42:28;;;;;;;;;;;25.50;99.90;;;;;;5089936;28;19913;-65
2022/08/15 10:45:10;;;;;;;;;;;25.40;99.90;;;;;;5088959;28;20334;-65
2022/08/15 10:47:55;;;;;;;;;;;25.20;99.90;;;;;;5089778;28;19913;-65
2022/08/15 10:50:42;;;;;;;;;;;25.20;99.90;;;;;;5089162;28;19917;-65
2022/08/15 10:53:28;;;;;;;;;;;25.10;99.90;;;;;;5089842;28;19973;-64
2022/08/15 10:56:05;;;;;;;;;;;25.20;99.90;;;;;;5089818;28;19995;-65
2022/08/15 10:58:32;;;;;;;;;;;25.20;99.90;;;;;;5089468;28;20400;-64
2022/08/15 11:01:07;;;;;;;;;;;25.20;99.90;;;;;;5090382;28;19909;-65
2022/08/15 11:03:42;;;;;;;;;;;25.20;99.90;;;;;;5089711;28;19909;-65
2022/08/15 11:06:13;;;;;;;;;;;25.30;99.90;;;;;;5089649;28;19912;-65
2022/08/15 11:08:43;;;;;;;;;;;25.20;99.90;;;;;;5087847;28;19957;-65
2022/08/15 11:11:10;;;;;;;;;;;25.30;99.90;;;;;;5087840;28;19921;-65
2022/08/15 11:13:36;;;;;;;;;;;25.50;99.90;;;;;;5089267;28;19912;-65
2022/08/15 11:16:18;;;;;;;;;;;25.60;99.90;;;;;;5089535;28;19909;-65
2022/08/15 11:18:48;;;;;;;;;;;25.70;99.90;;;;;;5085153;28;19913;-65
2022/08/15 11:21:16;;;;;;;;;;;26.00;99.90;;;;;;5092101;28;19956;-65
2022/08/15 11:23:42;;;;;;;;;;;25.80;99.90;;;;;;5075647;28;19935;-65
2022/08/15 11:26:09;;;;;;;;;;;25.60;99.90;;;;;;5075062;28;19913;-66
2022/08/15 11:28:39;;;;;;;;;;;25.90;99.90;;;;;;5074054;28;19916;-65
2022/08/15 11:31:07;;;;;;;;;;;26.20;99.90;;;;;;5075649;28;20390;-65
2022/08/15 11:33:40;;;;;;;;;;;26.20;99.90;;;;;;5074911;28;20140;-65
2022/08/15 11:36:11;;;;;;;;;;;26.20;99.90;;;;;;5074488;28;19921;-65
2022/08/15 11:38:41;;;;;;;;;;;26.40;99.90;;;;;;5095859;28;19957;-65
2022/08/15 11:41:08;;;;;;;;;;;26.50;99.90;;;;;;5084337;28;20050;-65
2022/08/15 11:43:33;;;;;;;;;;;26.60;99.90;;;;;;5075683;28;19908;-65
2022/08/15 11:45:59;;;;;;;;;;;26.60;99.90;;;;;;5076022;28;20321;-65
2022/08/15 11:48:27;;;;;;;;;;;26.70;99.90;;;;;;5075688;28;19908;-65
2022/08/15 11:50:55;;;;;;;;;;;26.90;99.90;;;;;;5074781;28;19927;-65
2022/08/15 11:53:20;;;;;;;;;;;26.60;99.90;;;;;;5074709;28;19924;-65
2022/08/15 11:55:46;;;;;;;;;;;26.50;99.90;;;;;;5074977;28;20264;-64
2022/08/15 11:58:14;;;;;;;;;;;26.40;99.90;;;;;;5073759;28;19940;-64
2022/08/15 12:00:42;;;;;;;;;;;26.60;99.90;;;;;;5074773;28;19917;-64
2022/08/15 12:03:27;;;;;;;;;;;26.50;99.90;;;;;;5075171;28;20406;-63
2022/08/15 12:05:55;;;;;;;;;;;26.60;99.90;;;;;;5074588;28;19913;-64
2022/08/15 12:08:29;;;;;;;;;;;26.70;99.90;;;;;;5075180;28;20439;-63
2022/08/15 12:11:03;;;;;;;;;;;27.00;99.90;;;;;;5090397;28;19930;-63
2022/08/15 12:13:29;;;;;;;;;;;27.00;99.50;;;;;;5095475;28;20370;-63
2022/08/15 12:15:54;;;;;;;;;;;27.10;99.30;;;;;;5095188;28;19919;-64
2022/08/15 12:18:24;;;;;;;;;;;27.20;98.50;;;;;;5094778;28;20007;-64
2022/08/15 12:23:36;;;;;;;;;;;27.20;98.70;;;;;;5070548;28;19917;-66
2022/08/15 12:26:05;;;;;;;;;;;27.40;97.80;;;;;;5055933;28;19913;-65
2022/08/15 12:28:31;;;;;;;;;;;27.20;96.90;;;;;;5063358;28;19917;-65
2022/08/15 12:31:11;;;;;;;;;;;27.40;98.80;;;;;;5058481;28;19959;-65
2022/08/15 12:33:37;;;;;;;;;;;27.70;97.80;;;;;;5049937;28;19913;-66
2022/08/15 12:36:02;;;;;;;;;;;27.80;97.30;;;;;;5063074;28;19913;-65
2022/08/15 12:38:28;;;;;;;;;;;28.20;96.90;;;;;;5054110;28;19912;-66
2022/08/15 12:40:54;;;;;;;;;;;28.00;95.70;;;;;;5056383;28;19916;-65
2022/08/15 12:43:20;;;;;;;;;;;27.80;95.90;;;;;;5054463;28;20027;-64
2022/08/15 12:45:45;;;;;;;;;;;27.30;97.00;;;;;;5065857;28;19946;-64
2022/08/15 12:48:27;;;;;;;;;;;27.50;97.40;;;;;;5061402;28;19917;-65
2022/08/15 12:50:52;;;;;;;;;;;27.90;96.50;;;;;;5046433;28;19917;-66
2022/08/15 12:53:18;;;;;;;;;;;28.30;95.80;;;;;;5054731;28;19916;-65
2022/08/15 12:55:47;;;;;;;;;;;28.10;94.70;;;;;;5051889;28;19913;-66
2022/08/15 12:58:13;;;;;;;;;;;28.30;94.70;;;;;;5043893;28;19917;-67
2022/08/15 13:00:40;;;;;;;;;;;28.60;96.00;;;;;;5049715;28;19913;-64
2022/08/15 13:03:07;;;;;;;;;;;28.30;94.00;;;;;;5049830;28;19928;-66
2022/08/15 13:05:34;;;;;;;;;;;28.30;94.00;;;;;;5051561;28;19912;-66
2022/08/15 13:08:00;;;;;;;;;;;28.30;95.10;;;;;;5068338;28;19909;-66
2022/08/15 13:10:27;;;;;;;;;;;28.20;95.10;;;;;;5070157;28;20287;-66
2022/08/15 13:12:52;;;;;;;;;;;28.30;94.30;;;;;;5069798;28;19982;-66
2022/08/15 13:15:19;;;;;;;;;;;28.60;94.10;;;;;;5068056;28;19913;-66
2022/08/15 13:17:44;;;;;;;;;;;28.70;93.50;;;;;;5054124;28;19913;-66
2022/08/15 13:25:41;;;;;;;;;;;28.30;93.70;;;;;;5076142;28;20325;-64
2022/08/15 13:28:06;;;;;;;;;;;27.90;94.70;;;;;;5070017;28;19913;-64
2022/08/15 13:30:33;;;;;;;;;;;27.80;94.40;;;;;;5069328;28;20003;-65
2022/08/15 13:33:00;;;;;;;;;;;28.00;94.20;;;;;;5066475;28;19920;-66
2022/08/15 13:35:26;;;;;;;;;;;28.10;94.10;;;;;;5037874;28;19919;-65
2022/08/15 13:37:51;;;;;;;;;;;27.90;95.10;;;;;;5056868;28;19913;-65
2022/08/15 13:40:18;;;;;;;;;;;28.10;95.10;;;;;;5056337;28;19909;-65
2022/08/15 13:42:44;;;;;;;;;;;28.20;95.40;;;;;;5056069;28;19978;-66
2022/08/15 13:45:10;;;;;;;;;;;28.30;95.00;;;;;;5056325;28;19931;-65
2022/08/15 13:47:35;;;;;;;;;;;27.90;95.20;;;;;;5069709;28;20370;-66
2022/08/15 13:50:01;;;;;;;;;;;27.90;95.40;;;;;;5076253;28;19944;-67
2022/08/15 13:52:27;;;;;;;;;;;28.00;95.00;;;;;;5076249;28;19913;-67
2022/08/15 13:54:53;;;;;;;;;;;28.00;95.50;;;;;;5073482;28;20294;-67
2022/08/15 13:57:20;;;;;;;;;;;27.80;95.50;;;;;;5057794;28;19920;-67
2022/08/15 13:59:45;;;;;;;;;;;27.70;95.50;;;;;;5056946;28;19960;-67
2022/08/15 14:02:13;;;;;;;;;;;27.70;94.90;;;;;;5055895;28;19956;-67
2022/08/15 14:04:39;;;;;;;;;;;27.70;95.10;;;;;;5055665;28;19909;-67
2022/08/15 14:07:06;;;;;;;;;;;27.70;95.20;;;;;;5070107;28;19951;-67
2022/08/15 14:09:32;;;;;;;;;;;27.80;95.40;;;;;;5075596;28;19915;-63
2022/08/15 14:11:58;;;;;;;;;;;27.40;96.20;;;;;;5075572;28;20010;-63
2022/08/15 14:14:24;;;;;;;;;;;27.20;96.90;;;;;;5075554;28;20370;-64
2022/08/15 14:16:51;;;;;;;;;;;27.10;97.10;;;;;;5073637;28;19919;-64
2022/08/15 14:19:17;;;;;;;;;;;27.20;98.40;;;;;;5075276;28;19924;-64
2022/08/15 14:21:44;;;;;;;;;;;27.00;99.10;;;;;;5075262;28;19920;-63
2022/08/15 14:24:10;;;;;;;;;;;26.90;99.80;;;;;;5073472;28;19920;-63
2022/08/15 14:26:37;;;;;;;;;;;26.70;99.70;;;;;;5075267;28;19912;-63
2022/08/15 14:29:04;;;;;;;;;;;26.60;99.90;;;;;;5075500;28;19912;-63
2022/08/15 14:31:32;;;;;;;;;;;26.40;99.90;;;;;;5075451;28;20383;-63
2022/08/15 14:33:57;;;;;;;;;;;26.40;99.90;;;;;;5069946;28;19940;-63
2022/08/15 14:36:23;;;;;;;;;;;26.30;99.90;;;;;;5055137;28;20002;-63
2022/08/15 14:38:49;;;;;;;;;;;26.30;99.90;;;;;;5055029;28;19952;-64
2022/08/15 14:41:15;;;;;;;;;;;26.40;99.90;;;;;;5054968;28;19999;-64
2022/08/15 14:43:41;;;;;;;;;;;26.50;99.90;;;;;;5049900;28;19920;-64
2022/08/15 14:46:09;;;;;;;;;;;26.30;99.90;;;;;;5073522;28;19912;-65
2022/08/15 14:48:36;;;;;;;;;;;26.20;99.90;;;;;;5074951;28;20409;-64
2022/08/15 14:51:02;;;;;;;;;;;26.10;99.90;;;;;;5074602;28;19908;-63
2022/08/15 14:53:27;;;;;;;;;;;26.10;99.90;;;;;;5073144;28;20297;-64
2022/08/15 14:55:53;;;;;;;;;;;26.00;99.90;;;;;;5074869;28;19908;-64